createdAt,value
2023-02-20T00:03:05.043Z,87.20
2023-02-20T00:11:10.572Z,87.40
2023-02-20T00:19:19.232Z,89.60
2023-02-20T00:27:25.423Z,87.90
2023-02-20T00:35:34.057Z,87.70
2023-02-20T00:43:39.598Z,87.00
2023-02-20T00:51:47.591Z,86.90
2023-02-20T00:59:53.357Z,86.40
2023-02-20T01:08:01.394Z,86.20
2023-02-20T01:16:08.132Z,85.70
2023-02-20T01:24:17.207Z,85.80
2023-02-20T01:32:25.798Z,85.20
2023-02-20T01:40:33.935Z,85.40
2023-02-20T01:48:39.732Z,85.50
2023-02-20T01:56:49.949Z,85.00
2023-02-20T02:04:55.664Z,84.50
2023-02-20T02:13:05.261Z,83.60
2023-02-20T02:21:34.680Z,83.80
2023-02-20T02:30:05.089Z,85.50
2023-02-20T02:38:24.849Z,85.60
2023-02-20T02:46:38.055Z,83.80
2023-02-20T02:54:46.057Z,82.80
2023-02-20T03:02:57.643Z,83.80
2023-02-20T03:11:09.680Z,83.00
2023-02-20T03:19:17.579Z,83.30
2023-02-20T03:27:29.420Z,85.30
2023-02-20T03:35:49.688Z,90.10
2023-02-20T03:43:59.567Z,88.30
2023-02-20T03:52:05.869Z,87.70
2023-02-20T04:00:23.051Z,86.90
2023-02-20T04:08:36.113Z,86.70
2023-02-20T04:16:50.630Z,86.30
2023-02-20T04:25:00.876Z,84.80
2023-02-20T04:33:13.743Z,86.40
2023-02-20T04:41:20.263Z,84.60
2023-02-20T04:49:29.038Z,84.80
2023-02-20T04:57:36.127Z,86.10
2023-02-20T05:05:44.473Z,89.80
2023-02-20T05:13:49.908Z,86.30
2023-02-20T05:22:10.373Z,88.50
2023-02-20T05:30:16.430Z,86.80
2023-02-20T05:38:24.530Z,85.80
2023-02-20T05:46:30.669Z,83.70
2023-02-20T05:54:39.022Z,81.90
2023-02-20T06:02:44.337Z,81.20
2023-02-20T08:20:13.961Z,67.60
2023-02-20T08:28:20.770Z,66.20
2023-02-20T08:36:28.908Z,66.70
2023-02-20T08:44:34.262Z,64.90
2023-02-20T08:52:42.199Z,66.60
2023-02-20T09:00:47.589Z,64.60
2023-02-20T09:08:56.303Z,65.60
2023-02-20T09:17:01.820Z,64.00
2023-02-20T09:25:11.122Z,62.70
2023-02-20T09:33:17.393Z,55.10
2023-02-20T09:41:38.970Z,47.00
2023-02-20T09:49:44.609Z,40.40
2023-02-20T09:57:55.808Z,38.40
2023-02-20T10:06:01.400Z,35.80
2023-02-20T10:14:31.074Z,32.20
2023-02-20T10:22:42.188Z,32.80
2023-02-20T10:30:58.689Z,37.60
2023-02-20T10:39:09.080Z,39.00
2023-02-20T10:47:23.524Z,33.40
2023-02-20T10:55:33.408Z,30.40
2023-02-20T11:03:48.608Z,28.30
2023-02-20T11:11:56.970Z,31.70
2023-02-20T11:20:06.850Z,37.20
2023-02-20T11:28:19.541Z,43.30
2023-02-20T11:36:29.791Z,47.90
2023-02-20T11:44:35.384Z,49.70
2023-02-20T11:52:59.879Z,51.20
2023-02-20T12:01:07.115Z,51.30
2023-02-20T12:09:19.979Z,51.70
2023-02-20T12:17:36.620Z,52.20
2023-02-20T12:25:59.779Z,52.00
2023-02-20T12:34:18.465Z,53.00
2023-02-20T12:42:37.430Z,53.00
2023-02-20T12:50:50.401Z,53.40
2023-02-20T12:59:07.803Z,52.90
2023-02-20T13:07:21.244Z,53.80
2023-02-20T13:15:41.559Z,53.60
2023-02-20T13:23:52.506Z,54.70
2023-02-20T13:32:02.521Z,54.00
2023-02-20T13:40:39.311Z,53.40
2023-02-20T13:48:50.096Z,50.60
2023-02-20T13:57:04.156Z,49.80
2023-02-20T14:05:23.357Z,50.50
2023-02-20T14:13:39.731Z,50.50
2023-02-20T14:21:49.845Z,50.90
2023-02-20T14:30:08.882Z,51.60
2023-02-20T14:38:28.348Z,51.60
2023-02-20T14:46:37.477Z,52.60
2023-02-20T14:54:59.798Z,54.50
2023-02-20T15:03:28.133Z,55.60
2023-02-20T15:11:39.825Z,56.10
2023-02-20T15:19:46.980Z,57.60
2023-02-20T15:28:11.409Z,58.30
2023-02-20T15:36:18.206Z,59.20
2023-02-20T15:44:26.244Z,59.70
2023-02-20T15:52:31.801Z,59.80
2023-02-20T16:00:39.888Z,60.80
2023-02-20T16:08:47.637Z,61.40
2023-02-20T16:17:04.673Z,61.80
2023-02-20T16:25:11.382Z,62.40
2023-02-20T16:33:22.412Z,63.10
2023-02-20T16:41:28.564Z,63.70
2023-02-20T16:49:38.308Z,64.90
2023-02-20T16:57:43.694Z,66.00
2023-02-20T17:05:58.549Z,65.80
2023-02-20T17:14:03.968Z,65.90
2023-02-20T17:22:16.581Z,66.40
2023-02-20T17:30:24.504Z,67.40
2023-02-20T17:38:33.053Z,67.30
2023-02-20T17:46:38.488Z,66.60
2023-02-20T17:54:48.813Z,67.00
2023-02-20T18:02:54.239Z,67.50
2023-02-20T18:11:02.351Z,67.30
2023-02-20T18:19:09.188Z,67.10
2023-02-20T18:27:17.233Z,69.40
2023-02-20T18:35:24.127Z,70.20
2023-02-20T18:43:32.183Z,70.90
2023-02-20T18:51:39.748Z,71.90
2023-02-20T18:59:48.286Z,73.10
2023-02-20T19:07:54.256Z,73.40
2023-02-20T19:16:03.000Z,73.30
2023-02-20T19:24:09.397Z,73.40
2023-02-20T19:32:18.138Z,72.60
2023-02-20T19:40:24.400Z,73.30
2023-02-20T19:48:32.630Z,72.60
2023-02-20T19:56:38.787Z,73.00
2023-02-20T20:04:47.465Z,73.30
2023-02-20T20:12:53.080Z,73.60
2023-02-20T20:21:01.468Z,73.40
2023-02-20T20:29:08.084Z,74.20
2023-02-20T20:37:16.065Z,74.60
2023-02-20T20:45:22.968Z,74.80
2023-02-20T20:53:31.502Z,76.40
2023-02-20T21:01:38.487Z,75.70
2023-02-20T21:09:47.005Z,76.20
2023-02-20T21:17:52.324Z,75.90
2023-02-20T21:26:00.377Z,76.90
2023-02-20T21:34:05.743Z,77.00
2023-02-20T21:42:27.679Z,78.00
2023-02-20T21:50:33.061Z,77.10
2023-02-20T21:58:53.208Z,77.00
2023-02-20T22:07:10.862Z,77.00
2023-02-20T22:15:31.299Z,77.30
2023-02-20T22:23:49.081Z,76.80
2023-02-20T22:32:09.598Z,76.50
2023-02-20T22:40:27.700Z,76.10
2023-02-20T22:48:48.382Z,76.20
2023-02-20T22:57:06.028Z,76.80
2023-02-20T23:05:26.716Z,77.20
2023-02-20T23:13:44.454Z,76.90
2023-02-20T23:22:04.719Z,77.80
2023-02-20T23:30:24.087Z,78.60
2023-02-20T23:38:44.476Z,78.90
2023-02-20T23:47:02.627Z,79.80
2023-02-20T23:55:23.285Z,80.00
